Estación de San Rafael

Ultimos registro cada 15 minutos 52
Estación Fecha / Hora Temperatura Humedad Lluvia Velocidad Dirección Radiación Presion
52 San Rafael 05-09-2026 12:45 10,5 82,7 0 1 111 73,1 999,3
51 San Rafael 05-09-2026 12:30 10,5 82,4 0 1 124 128,1 999,4
50 San Rafael 05-09-2026 12:15 9 85,7 0 1 117 183,1 999,7
49 San Rafael 05-09-2026 12:00 8,5 86,1 0 0,5 153 340,6 999,8
48 San Rafael 05-09-2026 11:45 8 88,3 0 0,5 129 390,6 1000
47 San Rafael 05-09-2026 11:30 7,8 88,4 0 0,5 142 409,4 1000,2
46 San Rafael 05-09-2026 11:15 7,8 89 0 0 180 383,1 1000,4
45 San Rafael 05-09-2026 11:00 6,8 91 0 0,5 143 270,6 1000,7
44 San Rafael 05-09-2026 10:45 6,4 92,7 0 1 166 236,9 1000,9
43 San Rafael 05-09-2026 10:30 6 93,1 0 1 183 196,9 1001
42 San Rafael 05-09-2026 10:15 5,8 94 0 0,5 194 166,9 1001,3
41 San Rafael 05-09-2026 10:00 5,5 94,3 0 1 161 158,1 1001,4
40 San Rafael 05-09-2026 09:45 5,5 95,1 0 0,5 149 124,4 1001,6
39 San Rafael 05-09-2026 09:30 5,5 95,4 0 0 147 93,1 1001,6
38 San Rafael 05-09-2026 09:15 5,5 95,5 0 0 160 80,6 1001,8
37 San Rafael 05-09-2026 09:00 5,3 95,8 0 0 173 76,9 1001,7
36 San Rafael 05-09-2026 08:45 5,1 96 0 1 180 58,1 1001,7
35 San Rafael 05-09-2026 08:30 5,1 96 0 1 185 45,6 1001,7
34 San Rafael 05-09-2026 08:15 5,2 95,9 0 0 161 34,4 1001,8
33 San Rafael 05-09-2026 08:00 5,1 96 0 0 153 28,1 1001,7
32 San Rafael 05-09-2026 07:45 5,1 96 0 0,5 157 20,6 1001,8
31 San Rafael 05-09-2026 07:30 4,9 95,9 0 1 184 10,6 1001,9
30 San Rafael 05-09-2026 07:15 4,9 95,8 0 0,5 175 3,1 1002
29 San Rafael 05-09-2026 07:00 4,9 95,7 0 0 170 0,6 1002,1
28 San Rafael 05-09-2026 06:45 4,9 95,6 0 0 167 0,6 1002,1
27 San Rafael 05-09-2026 06:30 5 95,6 0 0,5 164 0,6 1002,1
26 San Rafael 05-09-2026 06:15 5 95,7 0 1,5 173 0,6 1002,1
25 San Rafael 05-09-2026 06:00 5 95,7 0 1,5 166 0,6 1002,1
24 San Rafael 05-09-2026 05:45 4,9 96,1 0 1 174 0,6 1002,2
23 San Rafael 05-09-2026 05:30 4,3 96,3 0 0 180 0,6 1002,2
22 San Rafael 05-09-2026 05:15 3,3 96 0 0 180 0,6 1002,2
21 San Rafael 05-09-2026 05:00 2,3 95,5 0 0 180 0,6 1002,3
20 San Rafael 05-09-2026 04:45 2,7 94,6 0 0 180 0,6 1002,3
19 San Rafael 05-09-2026 04:30 3,4 94,6 0 0 180 0,6 1002,3
18 San Rafael 05-09-2026 04:15 3,1 93,4 0 0 180 0,6 1002,3
17 San Rafael 05-09-2026 04:00 3,7 92,9 0 0 180 0,6 1002,6
16 San Rafael 05-09-2026 03:45 4,4 91,9 0 0 177 0,6 1002,6
15 San Rafael 05-09-2026 03:30 4,7 91,4 0 0,5 170 0,6 1002,8
14 San Rafael 05-09-2026 03:15 5 90,8 0 1 178 0,6 1002,9
13 San Rafael 05-09-2026 03:00 5,1 90,3 0 0,5 180 0,6 1003,1
12 San Rafael 05-09-2026 02:45 5,2 89,9 0 0,5 178 0,6 1003,3
11 San Rafael 05-09-2026 02:30 5,1 89,6 0 0,5 170 0,6 1003,5
10 San Rafael 05-09-2026 02:15 4,8 89,9 0 0 160 0,6 1003,7
9 San Rafael 05-09-2026 02:00 4,8 89,2 0 0 159 0,6 1003,9
8 San Rafael 05-09-2026 01:45 5,2 88,6 0 0 160 0,6 1003,9
7 San Rafael 05-09-2026 01:30 5,5 87,8 0 0 167 0,6 1004,2
6 San Rafael 05-09-2026 01:15 5,7 86,7 0 0 164 0,6 1004,2
5 San Rafael 05-09-2026 01:00 6,2 85,6 0 0,5 177 0,6 1004,4
4 San Rafael 05-09-2026 00:45 6,7 84,7 0 0,5 171 0,6 1004,3
3 San Rafael 05-09-2026 00:30 6,8 83,5 0 1 166 0,6 1004,3
2 San Rafael 05-09-2026 00:15 7 83 0 1 174 0,6 1004,5
1 San Rafael 05-09-2026 00:00 7,4 81,8 0 1,5 175 0,6 1004,6